Time;durP1;ratioP1;P1;durP2;ratioP2;P2;SDS_P1;SDS_P2;PMS_P1;PMS_P2;Temp;Humidity;BMP_temperature;BMP_pressure;BME280_temperature;BME280_humidity;BME280_pressure;Samples;Min_cycle;Max_cycle;Signal;HPM_P1;HPM_P2
2023/08/31 00:02:16;;;;;;;12.97;4.60;;;;;9.50;93605.00;;;;7394205;19;20144;-76
2023/08/31 00:05:00;;;;;;;10.53;4.70;;;;;9.50;93603.00;;;;7393162;19;20262;-76
2023/08/31 00:07:35;;;;;;;7.63;4.83;;;;;9.40;93606.00;;;;7393796;19;20533;-75
2023/08/31 00:10:11;;;;;;;6.97;4.40;;;;;9.50;93614.00;;;;7399180;19;20149;-76
2023/08/31 00:12:41;;;;;;;12.17;4.80;;;;;9.40;93610.00;;;;7402137;19;20612;-76
2023/08/31 00:15:15;;;;;;;24.13;5.57;;;;;9.30;93608.00;;;;7402642;19;20145;-74
2023/08/31 00:17:43;;;;;;;25.73;4.47;;;;;9.20;93629.00;;;;7402015;19;20549;-75
2023/08/31 00:20:12;;;;;;;7.93;4.77;;;;;9.20;93642.00;;;;7400938;19;20136;-75
2023/08/31 00:22:46;;;;;;;7.90;4.40;;;;;9.30;93631.00;;;;7401529;19;20164;-76
2023/08/31 00:25:15;;;;;;;8.43;4.87;;;;;9.30;93637.00;;;;7401596;19;20161;-75
2023/08/31 00:27:49;;;;;;;9.47;5.30;;;;;9.20;93634.00;;;;7401046;19;20603;-75
2023/08/31 00:30:17;;;;;;;6.97;4.60;;;;;9.10;93632.00;;;;7401061;19;20612;-75
2023/08/31 00:32:53;;;;;;;10.17;5.60;;;;;9.10;93631.00;;;;7401189;19;20152;-75
2023/08/31 00:35:21;;;;;;;12.83;5.00;;;;;9.10;93616.00;;;;7400340;19;20615;-75
2023/08/31 00:38:01;;;;;;;8.30;5.40;;;;;9.00;93613.00;;;;7402254;19;20125;-74
2023/08/31 00:40:31;;;;;;;9.30;5.27;;;;;8.90;93609.00;;;;7403334;19;20592;-75
2023/08/31 00:43:05;;;;;;;10.80;5.57;;;;;8.80;93607.00;;;;7400336;19;20603;-74
2023/08/31 00:45:34;;;;;;;99.33;7.60;;;;;8.80;93619.00;;;;7399055;19;20140;-75
2023/08/31 00:48:09;;;;;;;6.17;4.73;;;;;8.90;93617.00;;;;7401856;19;20161;-74
2023/08/31 00:50:45;;;;;;;6.93;5.30;;;;;8.80;93616.00;;;;7400133;19;20646;-74
2023/08/31 00:53:19;;;;;;;8.03;5.50;;;;;8.70;93622.00;;;;7401729;19;20966;-76
2023/08/31 00:55:54;;;;;;;15.17;5.90;;;;;8.80;93614.00;;;;7401571;19;20621;-75
2023/08/31 00:58:30;;;;;;;11.43;5.03;;;;;8.80;93609.00;;;;7401846;19;20140;-75
2023/08/31 01:01:11;;;;;;;11.87;5.67;;;;;8.80;93616.00;;;;7403004;19;20141;-78
2023/08/31 01:04:09;;;;;;;10.67;5.80;;;;;8.90;93619.00;;;;7406117;19;20145;-78
2023/08/31 01:07:08;;;;;;;146.40;9.17;;;;;8.80;93615.00;;;;7404387;19;20129;-77
2023/08/31 01:10:15;;;;;;;8.60;5.20;;;;;8.70;93622.00;;;;7405456;19;20142;-78
2023/08/31 01:13:24;;;;;;;26.67;5.53;;;;;8.60;93625.00;;;;7405907;19;20441;-78
2023/08/31 01:16:04;;;;;;;28.07;6.10;;;;;8.60;93631.00;;;;7404094;19;20639;-78
2023/08/31 01:18:35;;;;;;;13.40;4.97;;;;;8.60;93626.00;;;;7404872;19;20158;-79
2023/08/31 01:21:35;;;;;;;24.73;7.13;;;;;8.50;93633.00;;;;7402112;19;20583;-79
2023/08/31 01:24:07;;;;;;;11.70;5.97;;;;;8.60;93639.00;;;;7404655;19;20596;-78
2023/08/31 01:26:42;;;;;;;33.97;6.60;;;;;8.70;93637.00;;;;7405490;19;20485;-78
2023/08/31 01:29:17;;;;;;;11.23;6.30;;;;;8.70;93642.00;;;;7403309;19;20602;-78
2023/08/31 01:31:53;;;;;;;13.90;6.03;;;;;8.70;93635.00;;;;7403457;19;20140;-78
2023/08/31 01:34:31;;;;;;;17.83;6.53;;;;;8.70;93636.00;;;;7404352;19;20149;-78
2023/08/31 01:37:15;;;;;;;15.60;7.07;;;;;8.70;93635.00;;;;7403231;19;20583;-79
2023/08/31 01:39:55;;;;;;;8.13;5.80;;;;;8.60;93631.00;;;;7401761;19;20145;-78
2023/08/31 01:42:33;;;;;;;9.93;6.07;;;;;8.60;93649.00;;;;7400783;19;20600;-78
2023/08/31 01:45:08;;;;;;;7.07;5.43;;;;;8.70;93641.00;;;;7399084;19;20168;-79
2023/08/31 01:47:42;;;;;;;13.17;6.90;;;;;8.80;93641.00;;;;7400927;19;20514;-79
2023/08/31 01:50:16;;;;;;;7.97;5.70;;;;;8.90;93643.00;;;;7399443;19;20623;-78
2023/08/31 01:52:53;;;;;;;13.10;7.10;;;;;9.00;93645.00;;;;7402422;19;20475;-78
2023/08/31 01:55:27;;;;;;;14.87;6.90;;;;;9.10;93646.00;;;;7399954;19;20133;-79
2023/08/31 01:57:57;;;;;;;11.07;6.63;;;;;9.30;93650.00;;;;7399741;19;20184;-77
2023/08/31 02:00:35;;;;;;;14.80;7.20;;;;;9.40;93639.00;;;;7398941;19;20150;-79
2023/08/31 02:03:11;;;;;;;12.80;6.80;;;;;9.50;93641.00;;;;7402641;19;20157;-78
2023/08/31 02:05:51;;;;;;;10.60;6.90;;;;;9.40;93643.00;;;;7397059;19;20144;-78
2023/08/31 02:08:19;;;;;;;12.87;7.07;;;;;9.50;93648.00;;;;7400200;19;20136;-79
2023/08/31 02:10:54;;;;;;;13.50;6.73;;;;;9.50;93642.00;;;;7400614;19;20153;-78
2023/08/31 02:13:29;;;;;;;10.63;6.23;;;;;9.50;93647.00;;;;7399582;19;20212;-75
2023/08/31 02:15:57;;;;;;;11.30;5.80;;;;;9.40;93655.00;;;;7397436;19;20880;-75
2023/08/31 02:18:31;;;;;;;28.73;6.67;;;;;9.30;93663.00;;;;7396295;19;20144;-76
2023/08/31 02:20:59;;;;;;;22.05;6.82;;;;;9.30;93655.00;;;;7396719;19;20147;-75
2023/08/31 02:23:26;;;;;;;7.83;5.53;;;;;9.30;93660.00;;;;7395843;19;20155;-75
2023/08/31 02:26:04;;;;;;;9.97;5.80;;;;;9.30;93659.00;;;;7397595;19;20128;-76
2023/08/31 02:28:32;;;;;;;13.50;5.60;;;;;9.30;93665.00;;;;7396437;19;20125;-75
2023/08/31 02:31:05;;;;;;;7.75;4.65;;;;;9.30;93654.00;;;;7395971;19;20745;-75
2023/08/31 02:33:45;;;;;;;11.17;5.73;;;;;9.40;93651.00;;;;7395899;19;20763;-74
2023/08/31 02:36:22;;;;;;;9.63;5.40;;;;;9.30;93658.00;;;;7398016;19;20648;-75
2023/08/31 02:38:53;;;;;;;10.90;5.70;;;;;9.30;93664.00;;;;7394841;19;20656;-74
2023/08/31 02:41:27;;;;;;;106.53;9.43;;;;;9.30;93671.00;;;;7396378;19;20125;-75
2023/08/31 02:43:56;;;;;;;12.53;5.20;;;;;9.30;93669.00;;;;7396862;19;20501;-74
2023/08/31 02:46:35;;;;;;;10.17;5.40;;;;;9.20;93665.00;;;;7394765;19;20140;-75
2023/08/31 02:49:09;;;;;;;9.73;5.13;;;;;9.20;93675.00;;;;7396833;19;20140;-75
2023/08/31 02:51:45;;;;;;;10.97;5.93;;;;;9.20;93678.00;;;;7395811;19;20119;-75
2023/08/31 02:54:26;;;;;;;8.23;5.30;;;;;9.20;93675.00;;;;7394841;19;20775;-75
2023/08/31 02:57:02;;;;;;;16.40;5.90;;;;;9.20;93680.00;;;;7394679;19;20121;-75
2023/08/31 02:59:39;;;;;;;13.10;5.90;;;;;9.20;93675.00;;;;7396214;19;20626;-76
2023/08/31 03:02:10;;;;;;;13.57;6.00;;;;;9.10;93667.00;;;;7394938;19;20141;-75
2023/08/31 03:04:44;;;;;;;11.60;4.97;;;;;9.10;93668.00;;;;7393791;19;20480;-75
2023/08/31 03:07:19;;;;;;;8.47;4.97;;;;;9.10;93664.00;;;;7393941;19;20216;-76
2023/08/31 03:09:54;;;;;;;8.73;4.53;;;;;9.10;93669.00;;;;7395268;19;20487;-75
2023/08/31 03:12:28;;;;;;;14.97;5.60;;;;;9.10;93672.00;;;;7393678;19;20625;-75
2023/08/31 03:15:00;;;;;;;11.40;4.93;;;;;9.10;93670.00;;;;7395981;19;20149;-75
2023/08/31 03:17:34;;;;;;;11.50;5.33;;;;;9.10;93676.00;;;;7395398;19;20152;-76
2023/08/31 03:20:04;;;;;;;8.00;4.80;;;;;9.10;93680.00;;;;7393949;19;20623;-76
2023/08/31 03:22:41;;;;;;;8.40;5.83;;;;;9.20;93672.00;;;;7397243;19;20136;-76
2023/08/31 03:25:09;;;;;;;14.80;5.50;;;;;9.30;93687.00;;;;7395546;19;20485;-75
2023/08/31 03:27:37;;;;;;;11.40;6.40;;;;;9.30;93680.00;;;;7394353;19;20144;-76
2023/08/31 03:30:12;;;;;;;13.03;6.30;;;;;9.40;93688.00;;;;7395043;19;20849;-76
2023/08/31 03:32:42;;;;;;;11.60;5.33;;;;;9.40;93669.00;;;;7394578;19;20145;-76
2023/08/31 03:35:18;;;;;;;11.77;5.83;;;;;9.50;93679.00;;;;7394140;19;20137;-76
2023/08/31 03:37:48;;;;;;;8.93;5.43;;;;;9.50;93689.00;;;;7398017;19;20618;-76
2023/08/31 03:40:23;;;;;;;11.50;5.53;;;;;9.50;93690.00;;;;7394028;19;20145;-75
2023/08/31 03:43:00;;;;;;;10.40;5.43;;;;;9.60;93690.00;;;;7395716;19;20133;-76
2023/08/31 03:45:41;;;;;;;14.23;5.88;;;;;9.70;93692.00;;;;7402574;19;20495;-77
2023/08/31 03:48:09;;;;;;;9.07;5.17;;;;;9.70;93691.00;;;;7401930;19;20506;-75
2023/08/31 03:50:43;;;;;;;13.90;5.27;;;;;9.80;93691.00;;;;7401543;19;20513;-76
2023/08/31 03:53:11;;;;;;;8.03;5.47;;;;;9.80;93691.00;;;;7402525;19;20173;-75
2023/08/31 03:55:45;;;;;;;12.83;5.63;;;;;9.80;93689.00;;;;7401490;19;20631;-76
2023/08/31 03:58:16;;;;;;;8.43;5.10;;;;;9.90;93694.00;;;;7400905;19;20152;-76
2023/08/31 04:00:51;;;;;;;11.57;5.63;;;;;9.90;93702.00;;;;7401187;19;20140;-76
2023/08/31 04:03:26;;;;;;;10.88;5.28;;;;;9.90;93706.00;;;;7400726;19;20131;-75
2023/08/31 04:06:01;;;;;;;8.38;4.75;;;;;10.00;93700.00;;;;7399562;19;20145;-77
2023/08/31 04:08:35;;;;;;;8.50;5.00;;;;;10.00;93716.00;;;;7401385;19;20151;-76
2023/08/31 04:11:09;;;;;;;12.20;5.37;;;;;10.00;93709.00;;;;7402681;19;20196;-76
2023/08/31 04:13:46;;;;;;;12.57;5.47;;;;;10.00;93716.00;;;;7399855;19;20167;-75
2023/08/31 04:16:14;;;;;;;12.50;5.60;;;;;9.90;93707.00;;;;7401074;19;20163;-76
2023/08/31 04:18:51;;;;;;;7.35;4.80;;;;;9.90;93712.00;;;;7400273;19;20146;-76
2023/08/31 04:21:28;;;;;;;7.57;4.80;;;;;9.90;93710.00;;;;7401397;19;20635;-76
2023/08/31 04:24:02;;;;;;;8.95;4.70;;;;;9.80;93708.00;;;;7401035;19;20156;-76
2023/08/31 04:26:30;;;;;;;8.90;4.90;;;;;9.80;93712.00;;;;7400916;19;20133;-76
2023/08/31 04:29:05;;;;;;;7.63;4.83;;;;;9.80;93722.00;;;;7400685;19;20172;-75
2023/08/31 04:31:37;;;;;;;8.30;4.50;;;;;9.70;93724.00;;;;7400390;19;20138;-75
2023/08/31 04:34:14;;;;;;;12.00;4.90;;;;;9.70;93728.00;;;;7399879;19;20618;-75
2023/08/31 04:36:49;;;;;;;12.00;4.63;;;;;9.60;93725.00;;;;7400199;19;20141;-75
2023/08/31 04:39:23;;;;;;;11.40;4.77;;;;;9.60;93721.00;;;;7399289;19;20132;-75
2023/08/31 04:41:54;;;;;;;6.78;4.20;;;;;9.60;93726.00;;;;7399042;19;20152;-75
2023/08/31 04:44:30;;;;;;;11.37;4.47;;;;;9.60;93724.00;;;;7399919;19;20489;-76
2023/08/31 04:47:00;;;;;;;8.37;4.00;;;;;9.60;93728.00;;;;7398491;19;20158;-76
2023/08/31 04:49:38;;;;;;;7.27;4.07;;;;;9.50;93722.00;;;;7400594;19;20133;-76
2023/08/31 04:52:06;;;;;;;9.10;4.80;;;;;9.50;93722.00;;;;7402093;19;20133;-76
2023/08/31 04:54:40;;;;;;;7.47;4.03;;;;;9.40;93724.00;;;;7398720;19;20475;-78
2023/08/31 04:57:10;;;;;;;8.70;4.43;;;;;9.40;93729.00;;;;7399263;19;20612;-77
2023/08/31 04:59:37;;;;;;;10.77;4.40;;;;;9.30;93728.00;;;;7400792;19;20252;-75
2023/08/31 05:02:14;;;;;;;14.93;4.60;;;;;9.30;93739.00;;;;7397082;19;20813;-74
2023/08/31 05:04:47;;;;;;;11.63;4.87;;;;;9.30;93732.00;;;;7397422;19;20153;-75
2023/08/31 05:07:31;;;;;;;9.00;5.10;;;;;9.30;93729.00;;;;7398914;19;20137;-73
2023/08/31 05:10:04;;;;;;;6.63;4.40;;;;;9.20;93735.00;;;;7399219;19;20492;-76
2023/08/31 05:12:41;;;;;;;6.87;4.40;;;;;9.20;93738.00;;;;7397957;19;20168;-77
2023/08/31 05:15:09;;;;;;;11.73;4.80;;;;;9.20;93749.00;;;;7398612;19;20129;-77
2023/08/31 05:17:48;;;;;;;11.97;4.73;;;;;9.20;93751.00;;;;7399251;19;20228;-77
2023/08/31 05:20:17;;;;;;;6.20;4.23;;;;;9.10;93753.00;;;;7397849;19;20165;-75
2023/08/31 05:22:52;;;;;;;9.10;4.50;;;;;9.10;93757.00;;;;7400974;19;20616;-76
2023/08/31 05:25:22;;;;;;;12.57;5.17;;;;;9.10;93766.00;;;;7398647;19;20608;-75
2023/08/31 05:27:52;;;;;;;10.43;4.83;;;;;9.10;93759.00;;;;7397956;19;20608;-75
2023/08/31 05:30:26;;;;;;;10.23;4.77;;;;;9.20;93756.00;;;;7398734;19;20148;-76
2023/08/31 05:33:01;;;;;;;9.40;5.07;;;;;9.30;93768.00;;;;7398022;19;20136;-76
2023/08/31 05:35:30;;;;;;;9.57;4.97;;;;;9.50;93764.00;;;;7397848;19;20141;-77
2023/08/31 05:38:04;;;;;;;13.17;5.57;;;;;9.60;93769.00;;;;7399564;19;20223;-75
2023/08/31 05:40:32;;;;;;;8.13;5.40;;;;;9.80;93768.00;;;;7397359;19;20153;-76
2023/08/31 05:43:06;;;;;;;11.30;5.67;;;;;9.90;93773.00;;;;7398745;19;20497;-76
2023/08/31 05:45:50;;;;;;;13.75;5.93;;;;;10.10;93778.00;;;;7398106;19;20607;-77
2023/08/31 05:48:24;;;;;;;11.40;5.38;;;;;10.30;93772.00;;;;7396320;19;20148;-75
2023/08/31 05:51:05;;;;;;;13.88;5.80;;;;;10.50;93776.00;;;;7396873;19;20320;-75
2023/08/31 05:53:44;;;;;;;11.53;5.47;;;;;10.50;93772.00;;;;7398097;19;20141;-75
2023/08/31 05:56:12;;;;;;;14.40;5.97;;;;;10.70;93779.00;;;;7398587;19;20133;-76
2023/08/31 05:58:47;;;;;;;12.63;5.43;;;;;10.70;93777.00;;;;7396211;19;20155;-76
2023/08/31 06:01:24;;;;;;;7.80;5.25;;;;;10.80;93780.00;;;;7396229;19;20169;-73
2023/08/31 06:03:52;;;;;;;18.98;6.03;;;;;10.70;93780.00;;;;7397161;19;20148;-75
2023/08/31 06:06:33;;;;;;;11.85;4.82;;;;;11.00;93785.00;;;;7398744;19;20615;-76
2023/08/31 06:09:01;;;;;;;9.68;6.45;;;;;11.20;93779.00;;;;7396456;19;20483;-74
2023/08/31 06:11:35;;;;;;;9.90;5.40;;;;;11.40;93784.00;;;;7396896;19;20623;-76
2023/08/31 06:14:09;;;;;;;8.93;5.05;;;;;11.30;93780.00;;;;7395350;19;20141;-75
2023/08/31 06:16:48;;;;;;;12.27;5.47;;;;;11.30;93779.00;;;;7396750;19;20645;-74
2023/08/31 06:19:22;;;;;;;8.65;4.75;;;;;11.40;93782.00;;;;7396215;19;20132;-75
2023/08/31 06:21:56;;;;;;;8.68;4.60;;;;;11.20;93786.00;;;;7395683;19;20765;-74
2023/08/31 06:24:30;;;;;;;14.45;4.78;;;;;11.20;93798.00;;;;7395282;19;20143;-75
2023/08/31 06:27:04;;;;;;;10.80;4.05;;;;;11.20;93806.00;;;;7395330;19;20173;-74
2023/08/31 06:29:32;;;;;;;7.53;4.25;;;;;11.00;93799.00;;;;7394855;19;20601;-77
2023/08/31 06:32:07;;;;;;;9.48;3.75;;;;;10.80;93804.00;;;;7394729;19;20173;-73
2023/08/31 06:34:35;;;;;;;8.88;3.88;;;;;10.70;93798.00;;;;7398230;19;20545;-74
2023/08/31 06:37:24;;;;;;;6.72;3.67;;;;;11.00;93806.00;;;;7393199;19;20192;-75
2023/08/31 06:39:59;;;;;;;9.18;3.60;;;;;11.20;93802.00;;;;7395289;19;20144;-76
2023/08/31 06:42:36;;;;;;;9.15;4.75;;;;;11.30;93800.00;;;;7394955;19;20133;-76
2023/08/31 06:45:06;;;;;;;8.27;4.38;;;;;11.50;93810.00;;;;7395787;19;20144;-77
2023/08/31 06:47:40;;;;;;;8.93;4.45;;;;;11.60;93795.00;;;;7393408;19;20498;-74
2023/08/31 06:50:09;;;;;;;10.05;4.55;;;;;11.80;93799.00;;;;7394303;19;20153;-76
2023/08/31 06:52:46;;;;;;;6.70;4.15;;;;;11.80;93799.00;;;;7396331;19;20136;-76
2023/08/31 06:55:16;;;;;;;11.10;4.07;;;;;11.80;93797.00;;;;7394629;19;20254;-83
2023/08/31 06:57:50;;;;;;;10.65;4.60;;;;;12.00;93798.00;;;;7395973;19;20133;-82
2023/08/31 07:00:19;;;;;;;9.75;4.15;;;;;12.00;93803.00;;;;7395306;19;20209;-84
2023/08/31 07:03:00;;;;;;;11.82;3.90;;;;;11.90;93810.00;;;;7393619;19;20139;-82
2023/08/31 07:05:47;;;;;;;12.02;3.83;;;;;12.00;93799.00;;;;7392030;19;20203;-79
2023/08/31 07:08:21;;;;;;;6.88;4.07;;;;;12.20;93811.00;;;;7394288;19;20172;-79
2023/08/31 07:10:56;;;;;;;12.43;4.38;;;;;12.30;93808.00;;;;7393975;19;20165;-80
2023/08/31 07:13:33;;;;;;;5.35;3.58;;;;;12.40;93803.00;;;;7394016;19;20136;-80
2023/08/31 07:16:07;;;;;;;7.57;3.42;;;;;12.50;93814.00;;;;7394411;19;20503;-79
2023/08/31 07:18:38;;;;;;;7.72;3.45;;;;;12.80;93811.00;;;;7397409;19;20136;-78
2023/08/31 07:21:15;;;;;;;8.98;3.55;;;;;12.80;93834.00;;;;7401056;19;20148;-81
2023/08/31 07:23:52;;;;;;;17.88;4.07;;;;;12.60;93822.00;;;;7401303;19;20132;-83
2023/08/31 07:26:29;;;;;;;7.82;2.53;;;;;12.60;93823.00;;;;7402696;19;20137;-81
2023/08/31 07:29:04;;;;;;;6.03;2.53;;;;;13.00;93823.00;;;;7399404;19;20154;-80
2023/08/31 07:31:32;;;;;;;3.95;2.33;;;;;13.00;93831.00;;;;7399161;19;20485;-81
2023/08/31 07:34:07;;;;;;;5.38;2.53;;;;;12.90;93825.00;;;;7402733;19;20620;-81
2023/08/31 07:36:35;;;;;;;6.68;2.53;;;;;12.90;93828.00;;;;7400367;19;20140;-82
2023/08/31 07:39:09;;;;;;;4.35;2.65;;;;;13.20;93835.00;;;;7399746;19;20169;-81
2023/08/31 07:41:37;;;;;;;4.60;2.38;;;;;13.40;93841.00;;;;7401644;19;20137;-85
2023/08/31 07:44:11;;;;;;;3.60;2.05;;;;;12.80;93832.00;;;;7401317;19;20137;-82
2023/08/31 07:46:45;;;;;;;5.63;2.85;;;;;13.00;93838.00;;;;7400405;19;20140;-82
2023/08/31 07:49:15;;;;;;;4.63;2.38;;;;;12.80;93835.00;;;;7400119;19;20599;-83
2023/08/31 07:51:49;;;;;;;8.02;2.20;;;;;12.60;93843.00;;;;7403197;19;20160;-82
2023/08/31 07:54:21;;;;;;;3.70;2.17;;;;;12.70;93840.00;;;;7403056;19;20510;-82
2023/08/31 07:56:55;;;;;;;4.72;2.00;;;;;12.70;93844.00;;;;7402077;19;20159;-81
2023/08/31 07:59:32;;;;;;;6.97;2.10;;;;;12.70;93848.00;;;;7395531;19;20686;-82
2023/08/31 08:02:10;;;;;;;3.95;2.00;;;;;13.30;93853.00;;;;7397428;19;20164;-82
2023/08/31 08:04:41;;;;;;;4.95;2.58;;;;;13.70;93848.00;;;;7397905;19;20170;-77
2023/08/31 08:07:22;;;;;;;8.40;2.88;;;;;14.10;93848.00;;;;7399376;19;20149;-76
2023/08/31 08:09:49;;;;;;;7.80;2.30;;;;;13.70;93855.00;;;;7398669;19;20136;-78
2023/08/31 08:12:25;;;;;;;4.95;2.30;;;;;14.20;93847.00;;;;7401784;19;20129;-76
2023/08/31 08:14:53;;;;;;;4.88;1.85;;;;;14.30;93861.00;;;;7398495;19;20151;-78
2023/08/31 08:17:27;;;;;;;6.45;2.25;;;;;13.90;93849.00;;;;7400136;19;20168;-78
2023/08/31 08:19:55;;;;;;;4.97;2.28;;;;;13.90;93855.00;;;;7399978;19;20220;-78
2023/08/31 08:22:30;;;;;;;6.25;2.30;;;;;14.20;93850.00;;;;7399208;19;20153;-78
2023/08/31 08:25:05;;;;;;;6.53;2.08;;;;;14.20;93848.00;;;;7398337;19;20132;-77
2023/08/31 08:27:39;;;;;;;4.80;1.85;;;;;14.60;93869.00;;;;7398814;19;20630;-78
2023/08/31 08:30:07;;;;;;;3.53;2.05;;;;;14.10;93849.00;;;;7395382;19;20143;-76
2023/08/31 08:32:42;;;;;;;5.00;2.20;;;;;14.30;93852.00;;;;7399374;19;20142;-77
2023/08/31 08:35:10;;;;;;;4.65;1.98;;;;;14.60;93860.00;;;;7399600;19;20141;-76
2023/08/31 08:37:44;;;;;;;3.55;2.03;;;;;14.80;93860.00;;;;7399845;19;20138;-78
2023/08/31 08:40:18;;;;;;;6.10;2.03;;;;;14.30;93868.00;;;;7399298;19;20136;-76
2023/08/31 08:42:59;;;;;;;6.38;1.85;;;;;14.80;93870.00;;;;7399653;19;20152;-74
2023/08/31 08:45:36;;;;;;;3.80;1.70;;;;;14.30;93878.00;;;;7398700;19;20156;-76
2023/08/31 08:48:10;;;;;;;3.25;1.85;;;;;14.20;93866.00;;;;7399282;19;20132;-76
2023/08/31 08:50:38;;;;;;;3.60;1.85;;;;;14.40;93872.00;;;;7396346;19;20128;-76
2023/08/31 08:53:06;;;;;;;8.02;2.67;;;;;14.80;93864.00;;;;7399940;19;20469;-76
2023/08/31 08:55:44;;;;;;;2.83;1.92;;;;;15.00;93876.00;;;;7397543;19;20140;-75
2023/08/31 08:58:12;;;;;;;7.13;2.40;;;;;14.80;93877.00;;;;7399745;19;20671;-73
2023/08/31 09:00:40;;;;;;;8.93;2.33;;;;;15.20;93875.00;;;;7397402;19;20487;-76
2023/08/31 09:03:15;;;;;;;3.60;2.00;;;;;15.30;93873.00;;;;7397091;19;20155;-75
2023/08/31 09:05:58;;;;;;;4.15;1.98;;;;;15.30;93884.00;;;;7398454;19;20197;-75
2023/08/31 09:08:39;;;;;;;3.97;2.00;;;;;15.50;93880.00;;;;7399039;19;20133;-75
2023/08/31 09:11:27;;;;;;;3.45;2.00;;;;;15.00;93875.00;;;;7394649;19;20136;-75
2023/08/31 09:13:57;;;;;;;5.00;2.00;;;;;15.40;93878.00;;;;7396743;19;20141;-75
2023/08/31 09:16:31;;;;;;;7.10;2.50;;;;;15.20;93878.00;;;;7397619;19;20136;-76
2023/08/31 09:19:19;;;;;;;3.85;2.10;;;;;15.20;93879.00;;;;7398494;19;20140;-74
2023/08/31 09:21:56;;;;;;;2.90;1.90;;;;;15.80;93880.00;;;;7396467;19;20152;-77
2023/08/31 09:24:42;;;;;;;5.43;2.13;;;;;15.50;93900.00;;;;7396934;19;20136;-75
2023/08/31 09:27:11;;;;;;;6.22;2.50;;;;;15.80;93885.00;;;;7397238;19;20222;-75
2023/08/31 09:29:46;;;;;;;5.40;2.42;;;;;15.90;93876.00;;;;7397170;19;20173;-75
2023/08/31 09:32:23;;;;;;;8.95;2.60;;;;;16.10;93898.00;;;;7396004;19;20591;-74
2023/08/31 09:34:51;;;;;;;4.93;2.28;;;;;15.70;93900.00;;;;7396917;19;20144;-75
2023/08/31 09:37:54;;;;;;;7.68;2.10;;;;;15.60;93902.00;;;;7397360;19;20149;-76
2023/08/31 09:40:22;;;;;;;3.95;1.70;;;;;15.30;93906.00;;;;7396465;19;20148;-75
2023/08/31 09:42:56;;;;;;;3.50;1.83;;;;;14.90;93906.00;;;;7394944;19;20155;-74
2023/08/31 09:45:33;;;;;;;5.30;2.13;;;;;14.80;93907.00;;;;7398076;19;20117;-74
2023/08/31 09:48:15;;;;;;;6.55;2.10;;;;;15.20;93899.00;;;;7396868;19;20153;-74
2023/08/31 09:50:56;;;;;;;6.03;2.13;;;;;15.40;93924.00;;;;7394912;19;20611;-75
2023/08/31 09:53:24;;;;;;;3.75;2.10;;;;;15.10;93910.00;;;;7395434;19;20168;-75
2023/08/31 09:56:00;;;;;;;5.35;2.17;;;;;14.90;93924.00;;;;7396482;19;20145;-76
2023/08/31 09:58:31;;;;;;;6.20;2.55;;;;;15.50;93906.00;;;;7395997;19;20647;-75
2023/08/31 10:01:06;;;;;;;6.80;1.83;;;;;15.60;93929.00;;;;7394347;19;20161;-75
2023/08/31 10:03:51;;;;;;;3.78;2.10;;;;;15.20;93927.00;;;;7396142;19;20197;-75
2023/08/31 10:06:32;;;;;;;2.95;1.92;;;;;15.00;93929.00;;;;7395061;19;20164;-76
2023/08/31 10:09:00;;;;;;;4.68;2.33;;;;;15.00;93916.00;;;;7397972;19;20136;-74
2023/08/31 10:11:36;;;;;;;8.98;2.38;;;;;14.90;93926.00;;;;7393706;19;20148;-74
2023/08/31 10:14:04;;;;;;;6.72;2.30;;;;;14.80;93935.00;;;;7396889;19;20217;-77
2023/08/31 10:16:44;;;;;;;6.70;2.13;;;;;15.00;93932.00;;;;7400813;19;20128;-75
2023/08/31 10:19:19;;;;;;;6.57;2.40;;;;;15.00;93928.00;;;;7395138;19;20610;-76
2023/08/31 10:21:53;;;;;;;5.40;2.05;;;;;14.80;93938.00;;;;7395153;19;20532;-78
2023/08/31 10:25:14;;;;;;;5.05;2.13;;;;;14.50;93930.00;;;;7395926;19;20531;-77
2023/08/31 10:27:52;;;;;;;8.82;2.15;;;;;14.80;93936.00;;;;7394671;19;20149;-75
2023/08/31 10:30:28;;;;;;;7.63;2.17;;;;;15.60;93896.00;;;;7394721;19;20149;-76
2023/08/31 10:33:09;;;;;;;11.27;2.17;;;;;16.70;93906.00;;;;7395313;19;20144;-76
2023/08/31 10:35:58;;;;;;;6.97;2.30;;;;;17.00;93902.00;;;;7394648;19;20164;-74
2023/08/31 10:38:32;;;;;;;7.80;2.20;;;;;17.50;93889.00;;;;7396185;19;20221;-76
2023/08/31 10:41:06;;;;;;;6.40;2.03;;;;;17.90;93905.00;;;;7395002;19;20152;-74
2023/08/31 10:43:55;;;;;;;7.10;2.15;;;;;17.20;93908.00;;;;7395637;19;20136;-74
2023/08/31 10:46:43;;;;;;;5.80;2.25;;;;;17.70;93888.00;;;;7395224;19;20468;-76
2023/08/31 10:49:11;;;;;;;5.55;1.83;;;;;18.20;93908.00;;;;7395487;19;20619;-75
2023/08/31 10:51:56;;;;;;;6.38;2.28;;;;;18.30;93899.00;;;;7392878;19;20600;-77
2023/08/31 10:54:35;;;;;;;5.85;2.22;;;;;18.00;93904.00;;;;7391539;19;20139;-74
2023/08/31 10:57:12;;;;;;;4.25;2.25;;;;;17.60;93920.00;;;;7393420;19;20129;-77
2023/08/31 10:59:55;;;;;;;5.00;2.35;;;;;17.00;93914.00;;;;7395025;19;20145;-74
2023/08/31 11:02:35;;;;;;;5.38;2.45;;;;;16.80;93923.00;;;;7395313;19;20640;-74
2023/08/31 11:05:24;;;;;;;9.07;2.85;;;;;16.50;93914.00;;;;7392582;19;20294;-74
2023/08/31 11:07:58;;;;;;;5.53;2.22;;;;;16.90;93919.00;;;;7393654;19;20152;-76
2023/08/31 11:10:32;;;;;;;6.38;2.30;;;;;16.70;93912.00;;;;7393551;19;20129;-74
2023/08/31 11:13:17;;;;;;;5.85;2.40;;;;;16.90;93913.00;;;;7394050;19;20133;-76
2023/08/31 11:15:48;;;;;;;4.65;2.17;;;;;16.80;93913.00;;;;7393518;19;20162;-75
2023/08/31 11:18:22;;;;;;;5.38;2.38;;;;;16.40;93920.00;;;;7395089;19;20577;-74
2023/08/31 11:20:50;;;;;;;4.60;2.00;;;;;16.60;93919.00;;;;7394405;19;20141;-73
2023/08/31 11:23:26;;;;;;;7.25;2.15;;;;;16.10;93933.00;;;;7392338;19;20144;-73
2023/08/31 11:26:03;;;;;;;4.75;2.00;;;;;16.20;93936.00;;;;7395096;19;20470;-75
2023/08/31 11:28:37;;;;;;;4.30;2.03;;;;;15.60;93942.00;;;;7395744;19;20485;-74
2023/08/31 11:31:04;;;;;;;4.28;1.98;;;;;15.50;93937.00;;;;7392317;19;20148;-75
2023/08/31 11:33:39;;;;;;;5.07;2.05;;;;;15.40;93943.00;;;;7393616;19;20151;-74
2023/08/31 11:36:07;;;;;;;5.00;2.03;;;;;15.70;93938.00;;;;7393271;19;20145;-74
2023/08/31 11:38:41;;;;;;;4.05;2.15;;;;;16.30;93923.00;;;;7393234;19;20172;-74
2023/08/31 11:41:09;;;;;;;4.18;1.88;;;;;17.20;93922.00;;;;7393335;19;20149;-74
2023/08/31 11:43:44;;;;;;;5.68;2.25;;;;;17.30;93894.00;;;;7394534;19;20145;-73
2023/08/31 11:46:15;;;;;;;5.10;1.88;;;;;18.10;93892.00;;;;7393482;19;20604;-73
2023/08/31 11:48:54;;;;;;;3.42;2.03;;;;;18.70;93886.00;;;;7395224;19;20140;-74
2023/08/31 11:51:30;;;;;;;4.53;2.03;;;;;18.80;93906.00;;;;7394962;19;20204;-73
2023/08/31 11:54:05;;;;;;;8.13;2.25;;;;;18.60;93894.00;;;;7394189;19;20149;-75
2023/08/31 11:56:51;;;;;;;4.75;2.10;;;;;18.40;93898.00;;;;7393203;19;20548;-74
2023/08/31 11:59:25;;;;;;;6.47;2.75;;;;;18.70;93893.00;;;;7395682;19;20182;-74
2023/08/31 12:01:55;;;;;;;5.43;2.00;;;;;18.30;93906.00;;;;7393303;19;20171;-73
2023/08/31 12:04:53;;;;;;;4.95;2.05;;;;;18.20;93910.00;;;;7394550;19;20140;-72
2023/08/31 12:07:27;;;;;;;7.38;1.95;;;;;17.70;93915.00;;;;7401255;19;20655;-73
2023/08/31 12:10:07;;;;;;;5.43;1.90;;;;;17.60;93921.00;;;;7400445;19;20140;-75
2023/08/31 12:12:36;;;;;;;3.80;1.80;;;;;17.50;93913.00;;;;7398374;19;20147;-75
2023/08/31 12:15:11;;;;;;;5.70;2.22;;;;;18.10;93916.00;;;;7381663;19;20481;-74
2023/08/31 12:17:39;;;;;;;3.95;2.03;;;;;17.70;93925.00;;;;7388485;19;20132;-74
2023/08/31 12:20:13;;;;;;;4.57;1.90;;;;;17.50;93927.00;;;;7388517;19;20144;-75
2023/08/31 12:22:50;;;;;;;7.22;2.42;;;;;17.00;93931.00;;;;7386209;19;20142;-73
2023/08/31 12:25:24;;;;;;;3.95;1.90;;;;;16.50;93922.00;;;;7385722;19;20225;-74
2023/08/31 12:27:57;;;;;;;7.25;2.28;;;;;16.50;93933.00;;;;7388086;19;20484;-73
2023/08/31 12:30:33;;;;;;;9.25;2.30;;;;;16.20;93931.00;;;;7388216;19;20212;-72
2023/08/31 12:33:10;;;;;;;3.88;1.58;;;;;16.60;93930.00;;;;7386719;19;20246;-74
2023/08/31 12:35:47;;;;;;;9.48;2.53;;;;;17.40;93901.00;;;;7387076;19;20166;-74
2023/08/31 12:38:22;;;;;;;3.17;1.90;;;;;18.90;93899.00;;;;7388028;19;20128;-74
2023/08/31 12:40:51;;;;;;;7.70;2.00;;;;;19.30;93894.00;;;;7386959;19;20583;-74
2023/08/31 12:43:28;;;;;;;3.15;2.08;;;;;19.90;93902.00;;;;7386146;19;20600;-73
2023/08/31 12:45:58;;;;;;;4.35;2.25;;;;;20.10;93889.00;;;;7390831;19;20129;-77
2023/08/31 12:48:33;;;;;;;5.60;1.83;;;;;20.50;93881.00;;;;7387987;19;20133;-77
2023/08/31 12:51:07;;;;;;;4.40;2.22;;;;;20.60;93911.00;;;;7386598;19;20135;-77
2023/08/31 12:53:39;;;;;;;5.43;2.00;;;;;19.80;93921.00;;;;7389511;19;20592;-78
2023/08/31 12:56:21;;;;;;;4.20;2.22;;;;;19.10;93922.00;;;;7389668;19;20148;-77
2023/08/31 12:58:53;;;;;;;7.95;1.73;;;;;19.00;93905.00;;;;7389116;19;20137;-78